sensor_id;sensor_type;location;lat;lon;timestamp;temperature;humidity
10903;DHT22;5504;47.312;11.060;2024-02-16T00:01:18;5.60;81.60
10903;DHT22;5504;47.312;11.060;2024-02-16T00:03:44;5.60;81.70
10903;DHT22;5504;47.312;11.060;2024-02-16T00:06:11;5.60;82.00
10903;DHT22;5504;47.312;11.060;2024-02-16T00:08:37;5.80;81.00
10903;DHT22;5504;47.312;11.060;2024-02-16T00:11:05;5.90;80.10
10903;DHT22;5504;47.312;11.060;2024-02-16T00:13:30;5.80;80.30
10903;DHT22;5504;47.312;11.060;2024-02-16T00:15:56;5.80;80.50
10903;DHT22;5504;47.312;11.060;2024-02-16T00:18:23;5.80;80.50
10903;DHT22;5504;47.312;11.060;2024-02-16T00:20:49;5.90;80.10
10903;DHT22;5504;47.312;11.060;2024-02-16T00:23:15;5.90;79.60
10903;DHT22;5504;47.312;11.060;2024-02-16T00:25:41;5.80;79.70
10903;DHT22;5504;47.312;11.060;2024-02-16T00:28:07;5.60;79.80
10903;DHT22;5504;47.312;11.060;2024-02-16T00:30:33;5.60;80.50
10903;DHT22;5504;47.312;11.060;2024-02-16T00:32:59;5.60;80.70
10903;DHT22;5504;47.312;11.060;2024-02-16T00:35:26;5.50;80.80
10903;DHT22;5504;47.312;11.060;2024-02-16T00:37:52;5.50;81.40
10903;DHT22;5504;47.312;11.060;2024-02-16T00:40:18;5.40;81.20
10903;DHT22;5504;47.312;11.060;2024-02-16T00:42:43;5.50;81.40
10903;DHT22;5504;47.312;11.060;2024-02-16T00:45:09;5.50;81.40
10903;DHT22;5504;47.312;11.060;2024-02-16T00:47:35;5.60;80.60
10903;DHT22;5504;47.312;11.060;2024-02-16T00:50:01;5.50;80.50
10903;DHT22;5504;47.312;11.060;2024-02-16T00:52:27;5.40;80.80
10903;DHT22;5504;47.312;11.060;2024-02-16T00:54:52;5.60;80.60
10903;DHT22;5504;47.312;11.060;2024-02-16T00:57:26;5.60;79.90
10903;DHT22;5504;47.312;11.060;2024-02-16T00:59:52;5.50;80.20
10903;DHT22;5504;47.312;11.060;2024-02-16T01:02:18;5.60;80.00
10903;DHT22;5504;47.312;11.060;2024-02-16T01:04:43;5.40;80.20
10903;DHT22;5504;47.312;11.060;2024-02-16T01:07:09;5.20;81.00
10903;DHT22;5504;47.312;11.060;2024-02-16T01:09:35;5.20;81.70
10903;DHT22;5504;47.312;11.060;2024-02-16T01:12:01;5.20;81.50
10903;DHT22;5504;47.312;11.060;2024-02-16T01:14:26;5.20;81.60
10903;DHT22;5504;47.312;11.060;2024-02-16T01:16:52;5.10;81.60
10903;DHT22;5504;47.312;11.060;2024-02-16T01:19:18;5.30;81.50
10903;DHT22;5504;47.312;11.060;2024-02-16T01:21:44;5.50;80.80
10903;DHT22;5504;47.312;11.060;2024-02-16T01:24:12;5.30;80.70
10903;DHT22;5504;47.312;11.060;2024-02-16T01:26:38;5.10;81.50
10903;DHT22;5504;47.312;11.060;2024-02-16T01:29:04;5.00;81.50
10903;DHT22;5504;47.312;11.060;2024-02-16T01:31:31;4.80;81.80
10903;DHT22;5504;47.312;11.060;2024-02-16T01:33:56;4.90;82.30
10903;DHT22;5504;47.312;11.060;2024-02-16T01:36:22;5.00;82.10
10903;DHT22;5504;47.312;11.060;2024-02-16T01:38:48;5.10;82.00
10903;DHT22;5504;47.312;11.060;2024-02-16T01:41:13;5.10;81.80
10903;DHT22;5504;47.312;11.060;2024-02-16T01:43:40;5.00;81.90
10903;DHT22;5504;47.312;11.060;2024-02-16T01:46:06;5.00;82.10
10903;DHT22;5504;47.312;11.060;2024-02-16T01:48:32;5.10;81.90
10903;DHT22;5504;47.312;11.060;2024-02-16T01:50:59;5.00;81.80
10903;DHT22;5504;47.312;11.060;2024-02-16T01:53:26;5.00;81.90
10903;DHT22;5504;47.312;11.060;2024-02-16T01:55:53;5.10;82.20
10903;DHT22;5504;47.312;11.060;2024-02-16T01:58:18;5.30;81.60
10903;DHT22;5504;47.312;11.060;2024-02-16T02:00:44;5.20;81.30
10903;DHT22;5504;47.312;11.060;2024-02-16T02:03:10;5.30;81.30
10903;DHT22;5504;47.312;11.060;2024-02-16T02:05:46;5.20;81.50
10903;DHT22;5504;47.312;11.060;2024-02-16T02:08:13;5.20;81.20
10903;DHT22;5504;47.312;11.060;2024-02-16T02:10:39;5.20;81.50
10903;DHT22;5504;47.312;11.060;2024-02-16T02:13:05;5.50;81.10
10903;DHT22;5504;47.312;11.060;2024-02-16T02:15:31;5.40;80.40
10903;DHT22;5504;47.312;11.060;2024-02-16T02:17:57;5.20;81.10
10903;DHT22;5504;47.312;11.060;2024-02-16T02:20:25;5.20;81.90
10903;DHT22;5504;47.312;11.060;2024-02-16T02:22:51;5.20;81.70
10903;DHT22;5504;47.312;11.060;2024-02-16T02:25:17;5.20;82.10
10903;DHT22;5504;47.312;11.060;2024-02-16T02:27:42;5.20;82.30
10903;DHT22;5504;47.312;11.060;2024-02-16T02:30:08;5.50;81.60
10903;DHT22;5504;47.312;11.060;2024-02-16T02:32:34;5.50;81.20
10903;DHT22;5504;47.312;11.060;2024-02-16T02:35:01;5.40;81.40
10903;DHT22;5504;47.312;11.060;2024-02-16T02:37:27;5.30;81.90
10903;DHT22;5504;47.312;11.060;2024-02-16T02:39:53;5.20;82.40
10903;DHT22;5504;47.312;11.060;2024-02-16T02:42:18;5.20;82.40
10903;DHT22;5504;47.312;11.060;2024-02-16T02:44:45;5.20;82.20
10903;DHT22;5504;47.312;11.060;2024-02-16T02:47:16;5.20;82.00
10903;DHT22;5504;47.312;11.060;2024-02-16T02:49:43;5.20;82.10
10903;DHT22;5504;47.312;11.060;2024-02-16T02:52:08;5.40;81.90
10903;DHT22;5504;47.312;11.060;2024-02-16T02:54:34;5.30;81.70
10903;DHT22;5504;47.312;11.060;2024-02-16T02:57:01;5.20;82.00
10903;DHT22;5504;47.312;11.060;2024-02-16T02:59:27;5.30;82.10
10903;DHT22;5504;47.312;11.060;2024-02-16T03:01:53;5.40;81.90
10903;DHT22;5504;47.312;11.060;2024-02-16T03:04:19;5.50;81.50
10903;DHT22;5504;47.312;11.060;2024-02-16T03:06:44;5.40;81.60
10903;DHT22;5504;47.312;11.060;2024-02-16T03:09:13;5.30;82.50
10903;DHT22;5504;47.312;11.060;2024-02-16T03:11:39;5.40;82.80
10903;DHT22;5504;47.312;11.060;2024-02-16T03:14:05;5.50;82.70
10903;DHT22;5504;47.312;11.060;2024-02-16T03:16:31;5.40;82.70
10903;DHT22;5504;47.312;11.060;2024-02-16T03:18:57;5.60;82.50
10903;DHT22;5504;47.312;11.060;2024-02-16T03:21:23;5.60;82.00
10903;DHT22;5504;47.312;11.060;2024-02-16T03:23:49;5.50;82.10
10903;DHT22;5504;47.312;11.060;2024-02-16T03:26:16;5.50;82.50
10903;DHT22;5504;47.312;11.060;2024-02-16T03:28:47;5.40;82.40
10903;DHT22;5504;47.312;11.060;2024-02-16T03:31:20;5.30;83.00
10903;DHT22;5504;47.312;11.060;2024-02-16T03:33:46;5.50;83.00
10903;DHT22;5504;47.312;11.060;2024-02-16T03:36:13;5.40;83.00
10903;DHT22;5504;47.312;11.060;2024-02-16T03:38:43;5.50;82.60
10903;DHT22;5504;47.312;11.060;2024-02-16T03:41:19;5.60;82.20
10903;DHT22;5504;47.312;11.060;2024-02-16T03:43:44;5.60;82.10
10903;DHT22;5504;47.312;11.060;2024-02-16T03:46:10;5.50;82.20
10903;DHT22;5504;47.312;11.060;2024-02-16T03:48:36;5.50;82.70
10903;DHT22;5504;47.312;11.060;2024-02-16T03:51:02;5.50;83.00
10903;DHT22;5504;47.312;11.060;2024-02-16T03:53:31;5.40;82.90
10903;DHT22;5504;47.312;11.060;2024-02-16T03:55:57;5.20;83.40
10903;DHT22;5504;47.312;11.060;2024-02-16T03:58:24;5.40;83.90
10903;DHT22;5504;47.312;11.060;2024-02-16T04:00:50;5.60;83.40
10903;DHT22;5504;47.312;11.060;2024-02-16T04:03:16;5.60;83.20
10903;DHT22;5504;47.312;11.060;2024-02-16T04:05:42;5.50;83.20
10903;DHT22;5504;47.312;11.060;2024-02-16T04:08:08;5.40;83.60
10903;DHT22;5504;47.312;11.060;2024-02-16T04:10:34;5.40;84.10
10903;DHT22;5504;47.312;11.060;2024-02-16T04:13:00;5.30;84.20
10903;DHT22;5504;47.312;11.060;2024-02-16T04:15:26;5.50;84.40
10903;DHT22;5504;47.312;11.060;2024-02-16T04:17:52;5.60;83.60
10903;DHT22;5504;47.312;11.060;2024-02-16T04:20:19;5.60;83.30
10903;DHT22;5504;47.312;11.060;2024-02-16T04:22:45;5.50;83.60
10903;DHT22;5504;47.312;11.060;2024-02-16T04:25:11;5.50;83.50
10903;DHT22;5504;47.312;11.060;2024-02-16T04:27:37;5.60;83.00
10903;DHT22;5504;47.312;11.060;2024-02-16T04:30:04;5.70;82.50
10903;DHT22;5504;47.312;11.060;2024-02-16T04:32:30;5.70;82.60
10903;DHT22;5504;47.312;11.060;2024-02-16T04:34:56;5.70;82.60
10903;DHT22;5504;47.312;11.060;2024-02-16T04:37:23;5.70;83.00
10903;DHT22;5504;47.312;11.060;2024-02-16T04:39:49;5.80;82.90
10903;DHT22;5504;47.312;11.060;2024-02-16T04:42:15;5.80;82.60
10903;DHT22;5504;47.312;11.060;2024-02-16T04:44:41;5.80;82.80
10903;DHT22;5504;47.312;11.060;2024-02-16T04:47:07;5.70;83.00
10903;DHT22;5504;47.312;11.060;2024-02-16T04:49:35;5.60;83.40
10903;DHT22;5504;47.312;11.060;2024-02-16T04:52:01;5.60;83.50
10903;DHT22;5504;47.312;11.060;2024-02-16T04:54:27;5.60;83.70
10903;DHT22;5504;47.312;11.060;2024-02-16T04:56:53;5.70;83.90
10903;DHT22;5504;47.312;11.060;2024-02-16T04:59:18;5.90;83.00
10903;DHT22;5504;47.312;11.060;2024-02-16T05:01:44;5.90;82.80
10903;DHT22;5504;47.312;11.060;2024-02-16T05:04:13;6.00;82.70
10903;DHT22;5504;47.312;11.060;2024-02-16T05:06:45;6.10;82.00
10903;DHT22;5504;47.312;11.060;2024-02-16T05:09:17;5.80;82.90
10903;DHT22;5504;47.312;11.060;2024-02-16T05:11:43;5.70;83.80
10903;DHT22;5504;47.312;11.060;2024-02-16T05:14:12;5.90;83.80
10903;DHT22;5504;47.312;11.060;2024-02-16T05:16:43;5.90;83.40
10903;DHT22;5504;47.312;11.060;2024-02-16T05:19:09;5.90;83.20
10903;DHT22;5504;47.312;11.060;2024-02-16T05:21:35;6.00;83.10
10903;DHT22;5504;47.312;11.060;2024-02-16T05:24:01;5.80;82.80
10903;DHT22;5504;47.312;11.060;2024-02-16T05:26:27;5.80;83.20
10903;DHT22;5504;47.312;11.060;2024-02-16T05:28:53;6.10;82.90
10903;DHT22;5504;47.312;11.060;2024-02-16T05:31:19;6.00;82.70
10903;DHT22;5504;47.312;11.060;2024-02-16T05:33:49;6.00;83.10
10903;DHT22;5504;47.312;11.060;2024-02-16T05:36:18;6.10;83.00
10903;DHT22;5504;47.312;11.060;2024-02-16T05:38:48;6.00;83.10
10903;DHT22;5504;47.312;11.060;2024-02-16T05:41:16;6.00;83.40
10903;DHT22;5504;47.312;11.060;2024-02-16T05:43:43;6.10;83.50
10903;DHT22;5504;47.312;11.060;2024-02-16T05:46:16;6.10;83.10
10903;DHT22;5504;47.312;11.060;2024-02-16T05:48:43;6.10;83.00
10903;DHT22;5504;47.312;11.060;2024-02-16T05:51:08;6.10;83.10
10903;DHT22;5504;47.312;11.060;2024-02-16T05:53:35;6.10;83.00
10903;DHT22;5504;47.312;11.060;2024-02-16T05:56:01;6.20;82.60
10903;DHT22;5504;47.312;11.060;2024-02-16T05:58:27;6.20;82.80
10903;DHT22;5504;47.312;11.060;2024-02-16T06:00:53;6.30;82.60
10903;DHT22;5504;47.312;11.060;2024-02-16T06:03:20;6.30;82.90
10903;DHT22;5504;47.312;11.060;2024-02-16T06:05:46;6.10;82.70
10903;DHT22;5504;47.312;11.060;2024-02-16T06:08:12;6.10;82.80
10903;DHT22;5504;47.312;11.060;2024-02-16T06:10:38;6.10;83.70
10903;DHT22;5504;47.312;11.060;2024-02-16T06:13:05;6.20;83.50
10903;DHT22;5504;47.312;11.060;2024-02-16T06:15:31;6.30;83.30
10903;DHT22;5504;47.312;11.060;2024-02-16T06:18:01;6.20;83.10
10903;DHT22;5504;47.312;11.060;2024-02-16T06:20:27;6.20;83.40
10903;DHT22;5504;47.312;11.060;2024-02-16T06:22:53;6.40;82.90
10903;DHT22;5504;47.312;11.060;2024-02-16T06:25:19;6.40;82.20
10903;DHT22;5504;47.312;11.060;2024-02-16T06:27:45;6.40;82.30
10903;DHT22;5504;47.312;11.060;2024-02-16T06:30:12;6.40;82.60
10903;DHT22;5504;47.312;11.060;2024-02-16T06:32:41;6.30;82.70
10903;DHT22;5504;47.312;11.060;2024-02-16T06:35:08;6.20;82.90
10903;DHT22;5504;47.312;11.060;2024-02-16T06:37:34;6.10;83.40
10903;DHT22;5504;47.312;11.060;2024-02-16T06:40:00;6.20;83.70
10903;DHT22;5504;47.312;11.060;2024-02-16T06:42:26;6.10;83.80
10903;DHT22;5504;47.312;11.060;2024-02-16T06:44:52;6.20;83.90
10903;DHT22;5504;47.312;11.060;2024-02-16T06:47:17;6.20;83.90
10903;DHT22;5504;47.312;11.060;2024-02-16T06:49:44;6.20;83.50
10903;DHT22;5504;47.312;11.060;2024-02-16T06:52:12;6.40;83.90
10903;DHT22;5504;47.312;11.060;2024-02-16T06:54:38;6.60;83.40
10903;DHT22;5504;47.312;11.060;2024-02-16T06:57:04;6.90;82.70
10903;DHT22;5504;47.312;11.060;2024-02-16T06:59:29;7.10;81.50
10903;DHT22;5504;47.312;11.060;2024-02-16T07:01:55;7.30;80.60
10903;DHT22;5504;47.312;11.060;2024-02-16T07:04:21;7.60;80.20
10903;DHT22;5504;47.312;11.060;2024-02-16T07:06:46;7.90;78.80
10903;DHT22;5504;47.312;11.060;2024-02-16T07:09:12;8.10;77.50
10903;DHT22;5504;47.312;11.060;2024-02-16T07:11:41;8.20;77.40
10903;DHT22;5504;47.312;11.060;2024-02-16T07:14:08;8.40;77.20
10903;DHT22;5504;47.312;11.060;2024-02-16T07:16:34;8.80;76.50
10903;DHT22;5504;47.312;11.060;2024-02-16T07:19:00;9.00;75.00
10903;DHT22;5504;47.312;11.060;2024-02-16T07:21:26;9.10;74.40
10903;DHT22;5504;47.312;11.060;2024-02-16T07:23:52;9.10;74.50
10903;DHT22;5504;47.312;11.060;2024-02-16T07:26:18;8.70;73.90
10903;DHT22;5504;47.312;11.060;2024-02-16T07:28:44;8.70;74.60
10903;DHT22;5504;47.312;11.060;2024-02-16T07:31:11;8.70;74.20
10903;DHT22;5504;47.312;11.060;2024-02-16T07:33:37;8.60;74.80
10903;DHT22;5504;47.312;11.060;2024-02-16T07:36:03;8.40;75.00
10903;DHT22;5504;47.312;11.060;2024-02-16T07:38:29;8.40;76.40
10903;DHT22;5504;47.312;11.060;2024-02-16T07:40:55;8.50;76.30
10903;DHT22;5504;47.312;11.060;2024-02-16T07:43:21;8.40;75.80
10903;DHT22;5504;47.312;11.060;2024-02-16T07:45:49;8.50;75.60
10903;DHT22;5504;47.312;11.060;2024-02-16T07:48:15;8.90;76.10
10903;DHT22;5504;47.312;11.060;2024-02-16T07:50:41;9.10;75.40
10903;DHT22;5504;47.312;11.060;2024-02-16T07:53:07;9.70;75.80
10903;DHT22;5504;47.312;11.060;2024-02-16T07:55:35;10.20;74.80
10903;DHT22;5504;47.312;11.060;2024-02-16T07:58:01;10.70;73.60
10903;DHT22;5504;47.312;11.060;2024-02-16T08:00:26;11.10;72.30
10903;DHT22;5504;47.312;11.060;2024-02-16T08:02:53;10.70;70.00
10903;DHT22;5504;47.312;11.060;2024-02-16T08:05:19;10.40;71.10
10903;DHT22;5504;47.312;11.060;2024-02-16T08:07:46;10.90;71.50
10903;DHT22;5504;47.312;11.060;2024-02-16T08:10:12;11.00;70.60
10903;DHT22;5504;47.312;11.060;2024-02-16T08:12:38;11.10;70.70
10903;DHT22;5504;47.312;11.060;2024-02-16T08:15:05;11.40;70.60
10903;DHT22;5504;47.312;11.060;2024-02-16T08:17:36;11.60;70.00
10903;DHT22;5504;47.312;11.060;2024-02-16T08:20:02;11.50;68.10
10903;DHT22;5504;47.312;11.060;2024-02-16T08:22:28;11.40;66.30
10903;DHT22;5504;47.312;11.060;2024-02-16T08:24:54;11.50;66.50
10903;DHT22;5504;47.312;11.060;2024-02-16T08:27:20;12.10;68.20
10903;DHT22;5504;47.312;11.060;2024-02-16T08:29:46;12.70;67.30
10903;DHT22;5504;47.312;11.060;2024-02-16T08:32:11;13.30;66.60
10903;DHT22;5504;47.312;11.060;2024-02-16T08:34:38;13.60;64.80
10903;DHT22;5504;47.312;11.060;2024-02-16T08:37:04;13.80;63.50
10903;DHT22;5504;47.312;11.060;2024-02-16T08:39:30;13.90;61.20
10903;DHT22;5504;47.312;11.060;2024-02-16T08:41:57;13.90;61.10
10903;DHT22;5504;47.312;11.060;2024-02-16T08:44:24;14.10;59.70
10903;DHT22;5504;47.312;11.060;2024-02-16T08:46:49;14.40;59.90
10903;DHT22;5504;47.312;11.060;2024-02-16T08:49:16;14.30;57.70
10903;DHT22;5504;47.312;11.060;2024-02-16T08:51:42;14.30;57.70
10903;DHT22;5504;47.312;11.060;2024-02-16T08:54:09;13.90;57.60
10903;DHT22;5504;47.312;11.060;2024-02-16T08:56:35;13.90;57.40
10903;DHT22;5504;47.312;11.060;2024-02-16T08:59:03;14.00;57.40
10903;DHT22;5504;47.312;11.060;2024-02-16T09:01:36;14.20;57.70
10903;DHT22;5504;47.312;11.060;2024-02-16T09:04:02;14.80;57.50
10903;DHT22;5504;47.312;11.060;2024-02-16T09:06:28;15.10;56.60
10903;DHT22;5504;47.312;11.060;2024-02-16T09:08:55;15.30;55.80
10903;DHT22;5504;47.312;11.060;2024-02-16T09:11:21;16.20;56.40
10903;DHT22;5504;47.312;11.060;2024-02-16T09:13:47;17.10;55.50
10903;DHT22;5504;47.312;11.060;2024-02-16T09:16:13;17.10;53.80
10903;DHT22;5504;47.312;11.060;2024-02-16T09:18:39;16.70;54.20
10903;DHT22;5504;47.312;11.060;2024-02-16T09:21:05;17.20;53.40
10903;DHT22;5504;47.312;11.060;2024-02-16T09:23:32;17.00;52.90
10903;DHT22;5504;47.312;11.060;2024-02-16T09:25:58;17.10;52.80
10903;DHT22;5504;47.312;11.060;2024-02-16T09:28:28;16.70;51.20
10903;DHT22;5504;47.312;11.060;2024-02-16T09:30:57;16.30;51.80
10903;DHT22;5504;47.312;11.060;2024-02-16T09:33:25;16.20;52.70
10903;DHT22;5504;47.312;11.060;2024-02-16T09:35:52;16.40;53.20
10903;DHT22;5504;47.312;11.060;2024-02-16T09:38:18;17.00;53.80
10903;DHT22;5504;47.312;11.060;2024-02-16T09:40:45;17.60;52.00
10903;DHT22;5504;47.312;11.060;2024-02-16T09:43:28;17.80;50.90
10903;DHT22;5504;47.312;11.060;2024-02-16T09:45:58;17.50;51.80
10903;DHT22;5504;47.312;11.060;2024-02-16T09:48:26;18.10;50.00
10903;DHT22;5504;47.312;11.060;2024-02-16T09:50:57;18.30;49.60
10903;DHT22;5504;47.312;11.060;2024-02-16T09:53:26;18.50;49.70
10903;DHT22;5504;47.312;11.060;2024-02-16T09:55:55;18.30;52.30
10903;DHT22;5504;47.312;11.060;2024-02-16T09:58:22;18.60;49.70
10903;DHT22;5504;47.312;11.060;2024-02-16T10:00:55;19.60;49.40
10903;DHT22;5504;47.312;11.060;2024-02-16T10:03:27;20.50;48.30
10903;DHT22;5504;47.312;11.060;2024-02-16T10:06:07;21.20;47.10
10903;DHT22;5504;47.312;11.060;2024-02-16T10:08:48;21.40;46.50
10903;DHT22;5504;47.312;11.060;2024-02-16T10:11:15;21.60;45.90
10903;DHT22;5504;47.312;11.060;2024-02-16T10:13:41;21.70;44.80
10903;DHT22;5504;47.312;11.060;2024-02-16T10:16:11;20.40;44.70
10903;DHT22;5504;47.312;11.060;2024-02-16T10:18:40;20.60;45.80
10903;DHT22;5504;47.312;11.060;2024-02-16T10:21:06;20.30;46.50
10903;DHT22;5504;47.312;11.060;2024-02-16T10:23:33;19.60;46.60
10903;DHT22;5504;47.312;11.060;2024-02-16T10:25:58;19.90;48.80
10903;DHT22;5504;47.312;11.060;2024-02-16T10:28:27;19.90;47.40
10903;DHT22;5504;47.312;11.060;2024-02-16T10:30:58;20.70;47.90
10903;DHT22;5504;47.312;11.060;2024-02-16T10:33:31;21.10;44.30
10903;DHT22;5504;47.312;11.060;2024-02-16T10:35:58;21.60;45.40
10903;DHT22;5504;47.312;11.060;2024-02-16T10:38:25;20.20;43.50
10903;DHT22;5504;47.312;11.060;2024-02-16T10:40:53;20.40;44.80
10903;DHT22;5504;47.312;11.060;2024-02-16T10:43:20;21.00;45.10
10903;DHT22;5504;47.312;11.060;2024-02-16T10:45:47;21.10;43.30
10903;DHT22;5504;47.312;11.060;2024-02-16T10:48:18;20.40;44.80
10903;DHT22;5504;47.312;11.060;2024-02-16T10:50:43;20.80;43.30
10903;DHT22;5504;47.312;11.060;2024-02-16T10:53:20;20.70;43.70
10903;DHT22;5504;47.312;11.060;2024-02-16T10:55:47;20.90;44.50
10903;DHT22;5504;47.312;11.060;2024-02-16T10:58:13;21.60;43.20
10903;DHT22;5504;47.312;11.060;2024-02-16T11:00:52;21.40;44.90
10903;DHT22;5504;47.312;11.060;2024-02-16T11:03:22;20.90;42.70
10903;DHT22;5504;47.312;11.060;2024-02-16T11:05:51;20.90;43.60
10903;DHT22;5504;47.312;11.060;2024-02-16T11:08:19;21.10;44.40
10903;DHT22;5504;47.312;11.060;2024-02-16T11:11:22;21.70;44.00
10903;DHT22;5504;47.312;11.060;2024-02-16T11:13:47;21.60;42.70
10903;DHT22;5504;47.312;11.060;2024-02-16T11:16:13;21.30;43.90
10903;DHT22;5504;47.312;11.060;2024-02-16T11:18:41;21.40;44.20
10903;DHT22;5504;47.312;11.060;2024-02-16T11:21:12;21.40;43.60
10903;DHT22;5504;47.312;11.060;2024-02-16T11:23:40;21.80;43.60
10903;DHT22;5504;47.312;11.060;2024-02-16T11:26:09;22.00;43.10
10903;DHT22;5504;47.312;11.060;2024-02-16T11:28:41;22.20;42.30
10903;DHT22;5504;47.312;11.060;2024-02-16T11:31:07;21.50;42.80
10903;DHT22;5504;47.312;11.060;2024-02-16T11:33:33;21.90;43.30
10903;DHT22;5504;47.312;11.060;2024-02-16T11:36:01;21.90;42.20
10903;DHT22;5504;47.312;11.060;2024-02-16T11:38:27;22.00;42.60
10903;DHT22;5504;47.312;11.060;2024-02-16T11:40:57;21.90;42.90
10903;DHT22;5504;47.312;11.060;2024-02-16T11:43:24;22.10;42.40
10903;DHT22;5504;47.312;11.060;2024-02-16T11:45:50;22.30;41.90
10903;DHT22;5504;47.312;11.060;2024-02-16T11:48:23;22.00;42.30
10903;DHT22;5504;47.312;11.060;2024-02-16T11:51:03;22.20;41.00
10903;DHT22;5504;47.312;11.060;2024-02-16T11:53:30;22.60;42.40
10903;DHT22;5504;47.312;11.060;2024-02-16T11:55:56;23.00;41.00
10903;DHT22;5504;47.312;11.060;2024-02-16T11:58:22;23.10;40.90
10903;DHT22;5504;47.312;11.060;2024-02-16T12:00:49;22.90;41.30
10903;DHT22;5504;47.312;11.060;2024-02-16T12:03:23;22.90;41.60
10903;DHT22;5504;47.312;11.060;2024-02-16T12:05:55;22.50;41.40
10903;DHT22;5504;47.312;11.060;2024-02-16T12:08:22;22.20;40.50
10903;DHT22;5504;47.312;11.060;2024-02-16T12:10:49;22.10;40.60
10903;DHT22;5504;47.312;11.060;2024-02-16T12:13:20;22.10;41.60
10903;DHT22;5504;47.312;11.060;2024-02-16T12:15:47;22.30;41.20
10903;DHT22;5504;47.312;11.060;2024-02-16T12:18:23;22.50;41.00
10903;DHT22;5504;47.312;11.060;2024-02-16T12:20:59;22.20;40.90
10903;DHT22;5504;47.312;11.060;2024-02-16T12:23:25;21.80;40.80
10903;DHT22;5504;47.312;11.060;2024-02-16T12:25:51;21.90;41.90
10903;DHT22;5504;47.312;11.060;2024-02-16T12:28:17;22.20;41.40
10903;DHT22;5504;47.312;11.060;2024-02-16T12:30:43;22.00;41.30
10903;DHT22;5504;47.312;11.060;2024-02-16T12:33:08;22.60;41.30
10903;DHT22;5504;47.312;11.060;2024-02-16T12:35:34;21.80;40.30
10903;DHT22;5504;47.312;11.060;2024-02-16T12:38:00;21.80;41.50
10903;DHT22;5504;47.312;11.060;2024-02-16T12:40:26;21.60;42.40
10903;DHT22;5504;47.312;11.060;2024-02-16T12:42:52;21.20;42.40
10903;DHT22;5504;47.312;11.060;2024-02-16T12:45:18;20.70;43.60
10903;DHT22;5504;47.312;11.060;2024-02-16T12:47:44;20.50;44.30
10903;DHT22;5504;47.312;11.060;2024-02-16T12:50:10;20.50;44.60
10903;DHT22;5504;47.312;11.060;2024-02-16T12:52:36;20.40;44.80
10903;DHT22;5504;47.312;11.060;2024-02-16T12:55:07;20.70;45.30
10903;DHT22;5504;47.312;11.060;2024-02-16T12:57:35;20.80;45.40
10903;DHT22;5504;47.312;11.060;2024-02-16T13:00:00;21.30;45.40
10903;DHT22;5504;47.312;11.060;2024-02-16T13:02:27;21.40;46.10
10903;DHT22;5504;47.312;11.060;2024-02-16T13:04:54;21.40;45.30
10903;DHT22;5504;47.312;11.060;2024-02-16T13:07:20;21.60;45.60
10903;DHT22;5504;47.312;11.060;2024-02-16T13:09:46;21.90;44.50
10903;DHT22;5504;47.312;11.060;2024-02-16T13:12:12;22.20;44.20
10903;DHT22;5504;47.312;11.060;2024-02-16T13:14:37;22.70;44.70
10903;DHT22;5504;47.312;11.060;2024-02-16T13:17:04;23.60;43.30
10903;DHT22;5504;47.312;11.060;2024-02-16T13:19:29;22.50;41.20
10903;DHT22;5504;47.312;11.060;2024-02-16T13:21:55;23.00;41.00
10903;DHT22;5504;47.312;11.060;2024-02-16T13:24:21;21.80;42.00
10903;DHT22;5504;47.312;11.060;2024-02-16T13:26:47;22.60;42.30
10903;DHT22;5504;47.312;11.060;2024-02-16T13:29:13;23.20;41.10
10903;DHT22;5504;47.312;11.060;2024-02-16T13:31:38;22.90;39.70
10903;DHT22;5504;47.312;11.060;2024-02-16T13:34:06;23.80;42.30
10903;DHT22;5504;47.312;11.060;2024-02-16T13:36:31;24.00;38.90
10903;DHT22;5504;47.312;11.060;2024-02-16T13:38:57;24.60;39.20
10903;DHT22;5504;47.312;11.060;2024-02-16T13:41:23;25.00;39.80
10903;DHT22;5504;47.312;11.060;2024-02-16T13:43:50;25.50;39.70
10903;DHT22;5504;47.312;11.060;2024-02-16T13:46:17;24.70;37.60
10903;DHT22;5504;47.312;11.060;2024-02-16T13:48:43;24.70;40.30
10903;DHT22;5504;47.312;11.060;2024-02-16T13:51:09;24.00;38.70
10903;DHT22;5504;47.312;11.060;2024-02-16T13:53:38;24.40;39.70
10903;DHT22;5504;47.312;11.060;2024-02-16T13:56:04;24.70;39.40
10903;DHT22;5504;47.312;11.060;2024-02-16T13:58:31;24.40;37.90
10903;DHT22;5504;47.312;11.060;2024-02-16T14:00:58;24.40;38.80
10903;DHT22;5504;47.312;11.060;2024-02-16T14:03:24;23.80;39.60
10903;DHT22;5504;47.312;11.060;2024-02-16T14:05:50;23.00;38.80
10903;DHT22;5504;47.312;11.060;2024-02-16T14:08:17;23.00;41.20
10903;DHT22;5504;47.312;11.060;2024-02-16T14:10:43;22.90;41.40
10903;DHT22;5504;47.312;11.060;2024-02-16T14:13:09;22.30;39.00
10903;DHT22;5504;47.312;11.060;2024-02-16T14:15:35;21.60;39.80
10903;DHT22;5504;47.312;11.060;2024-02-16T14:18:01;21.20;41.00
10903;DHT22;5504;47.312;11.060;2024-02-16T14:20:27;21.30;42.40
10903;DHT22;5504;47.312;11.060;2024-02-16T14:22:53;21.20;41.90
10903;DHT22;5504;47.312;11.060;2024-02-16T14:25:18;21.00;42.50
10903;DHT22;5504;47.312;11.060;2024-02-16T14:27:44;21.10;44.00
10903;DHT22;5504;47.312;11.060;2024-02-16T14:30:14;21.00;43.80
10903;DHT22;5504;47.312;11.060;2024-02-16T14:32:40;20.70;44.80
10903;DHT22;5504;47.312;11.060;2024-02-16T14:35:06;20.70;45.00
10903;DHT22;5504;47.312;11.060;2024-02-16T14:37:33;20.20;44.60
10903;DHT22;5504;47.312;11.060;2024-02-16T14:39:58;20.30;45.70
10903;DHT22;5504;47.312;11.060;2024-02-16T14:42:26;19.90;44.60
10903;DHT22;5504;47.312;11.060;2024-02-16T14:44:52;20.20;46.50
10903;DHT22;5504;47.312;11.060;2024-02-16T14:47:18;20.30;46.60
10903;DHT22;5504;47.312;11.060;2024-02-16T14:49:44;20.30;47.00
10903;DHT22;5504;47.312;11.060;2024-02-16T14:52:09;20.30;47.40
10903;DHT22;5504;47.312;11.060;2024-02-16T14:54:36;20.40;47.40
10903;DHT22;5504;47.312;11.060;2024-02-16T14:57:02;20.30;47.20
10903;DHT22;5504;47.312;11.060;2024-02-16T14:59:28;20.10;47.20
10903;DHT22;5504;47.312;11.060;2024-02-16T15:01:55;20.10;46.90
10903;DHT22;5504;47.312;11.060;2024-02-16T15:04:22;20.00;48.30
10903;DHT22;5504;47.312;11.060;2024-02-16T15:06:48;20.00;47.90
10903;DHT22;5504;47.312;11.060;2024-02-16T15:09:13;20.00;47.10
10903;DHT22;5504;47.312;11.060;2024-02-16T15:11:39;20.00;47.40
10903;DHT22;5504;47.312;11.060;2024-02-16T15:14:05;19.90;47.50
10903;DHT22;5504;47.312;11.060;2024-02-16T15:16:31;19.70;47.70
10903;DHT22;5504;47.312;11.060;2024-02-16T15:18:57;19.50;48.00
10903;DHT22;5504;47.312;11.060;2024-02-16T15:21:23;19.50;48.80
10903;DHT22;5504;47.312;11.060;2024-02-16T15:23:49;19.30;48.30
10903;DHT22;5504;47.312;11.060;2024-02-16T15:26:15;19.20;49.30
10903;DHT22;5504;47.312;11.060;2024-02-16T15:28:41;19.20;48.70
10903;DHT22;5504;47.312;11.060;2024-02-16T15:31:07;19.20;49.10
10903;DHT22;5504;47.312;11.060;2024-02-16T15:33:33;19.00;48.90
10903;DHT22;5504;47.312;11.060;2024-02-16T15:35:59;19.00;49.40